Campbells Crossroads, Alabama
Current Conditions -  °F | °C
As of 12:36 PM on Saturday 20 Dec 2014 (Local Time) from KANB Reporting Station
Overcast Overcast  
Wind Chill: 46°   Ceiling: 1000
Heat Index: 46°   Visibility: 8mi
Dew Point: 42°   Wind: 3mph
Humidity: 86%   Direction: 40°NE
Pressure: 30.18"   Gusts: NA
Location:  33.3533°N, 85.7343°W
Report Text: KANB 201836Z AUTO 04003KT 8SM BKN010 OVC018 08/06 A3018 RMK AO2 CIG 007V012 T00780056
Loading
Personal Weather Stations






























Interactive Weather Map New forecast layout! Learn more

10-Day Weather Forecast

Advertisements
Track Severe Weather on mobile